createdAt,value
2022-09-16T00:00:15.339Z,8.79
2022-09-16T00:05:51.891Z,8.98
2022-09-16T00:11:14.281Z,8.91
2022-09-16T00:16:36.954Z,8.90
2022-09-16T00:22:01.821Z,8.89
2022-09-16T00:27:23.982Z,8.79
2022-09-16T00:32:47.461Z,8.93
2022-09-16T00:38:09.879Z,8.93
2022-09-16T00:44:07.772Z,8.98
2022-09-16T00:49:32.429Z,9.12
2022-09-16T00:54:55.459Z,9.38
2022-09-16T01:00:18.420Z,9.27
2022-09-16T01:05:45.292Z,9.34
2022-09-16T01:11:09.232Z,9.30
2022-09-16T01:16:45.699Z,9.43
2022-09-16T01:22:28.221Z,9.53
2022-09-16T01:28:03.652Z,9.08
2022-09-16T01:34:20.512Z,9.19
2022-09-16T01:40:12.007Z,9.33
2022-09-16T01:45:38.560Z,9.02
2022-09-16T01:51:03.221Z,9.51
2022-09-16T01:56:33.801Z,9.05
2022-09-16T02:02:09.983Z,9.43
2022-09-16T02:07:36.040Z,9.45
2022-09-16T02:13:04.835Z,9.25
2022-09-16T02:18:38.417Z,9.22
2022-09-16T02:24:05.999Z,9.65
2022-09-16T02:29:33.021Z,9.52
2022-09-16T02:34:57.360Z,9.73
2022-09-16T02:40:28.889Z,9.78
2022-09-16T02:45:57.482Z,9.82
2022-09-16T02:51:50.152Z,9.85
2022-09-16T02:57:14.681Z,9.95
2022-09-16T03:02:37.074Z,10.09
2022-09-16T03:08:02.002Z,10.18
2022-09-16T03:13:36.845Z,10.18
2022-09-16T03:19:38.010Z,10.19
2022-09-16T03:25:15.941Z,10.31
2022-09-16T03:30:47.843Z,9.98
2022-09-16T03:36:16.320Z,10.23
2022-09-16T03:41:40.166Z,10.29
2022-09-16T03:47:03.496Z,10.29
2022-09-16T03:52:28.382Z,10.08
2022-09-16T03:57:56.800Z,10.06
2022-09-16T04:03:21.400Z,10.07
2022-09-16T04:08:45.580Z,10.16
2022-09-16T04:14:08.870Z,10.67
2022-09-16T04:19:31.781Z,10.34
2022-09-16T04:24:58.014Z,10.31
2022-09-16T04:30:34.736Z,10.34
2022-09-16T04:36:19.859Z,10.91
2022-09-16T04:41:46.241Z,10.72
2022-09-16T04:47:09.863Z,10.72
2022-09-16T04:52:35.099Z,10.74
2022-09-16T04:58:01.100Z,10.86
2022-09-16T05:03:26.237Z,11.27
2022-09-16T05:08:51.601Z,11.16
2022-09-16T05:14:20.042Z,11.44
2022-09-16T05:19:42.570Z,11.36
2022-09-16T05:25:06.219Z,11.40
2022-09-16T05:36:43.159Z,11.45
2022-09-16T05:42:10.998Z,11.99
2022-09-16T05:47:42.063Z,11.60
2022-09-16T05:53:13.962Z,11.68
2022-09-16T05:58:39.121Z,12.15
2022-09-16T06:04:07.370Z,11.86
2022-09-16T06:09:38.898Z,11.85
2022-09-16T06:15:03.425Z,12.41
2022-09-16T06:20:26.046Z,12.49
2022-09-16T06:25:52.492Z,12.50
2022-09-16T06:31:19.538Z,12.39
2022-09-16T06:36:46.112Z,12.53
2022-09-16T06:42:18.091Z,12.36
2022-09-16T06:47:43.401Z,12.17
2022-09-16T06:59:03.158Z,12.74
2022-09-16T07:04:32.932Z,12.31
2022-09-16T07:09:59.464Z,12.51
2022-09-16T07:15:22.257Z,13.09
2022-09-16T07:20:49.650Z,13.31
2022-09-16T07:26:19.941Z,13.63
2022-09-16T07:31:42.686Z,14.34
2022-09-16T07:37:05.019Z,14.33
2022-09-16T07:42:35.008Z,14.78
2022-09-16T07:47:57.611Z,14.75
2022-09-16T07:53:25.206Z,14.64
2022-09-16T07:58:56.740Z,14.70
2022-09-16T08:04:27.489Z,14.71
2022-09-16T08:16:44.906Z,14.72
2022-09-16T08:22:07.017Z,15.25
2022-09-16T08:27:29.049Z,15.28
2022-09-16T08:32:58.716Z,15.28
2022-09-16T08:38:21.087Z,15.58
2022-09-16T08:44:16.381Z,15.88
2022-09-16T08:49:46.591Z,16.20
2022-09-16T08:55:18.412Z,16.22
2022-09-16T09:00:42.988Z,16.42
2022-09-16T09:06:37.711Z,16.39
2022-09-16T09:12:09.939Z,16.79
2022-09-16T09:17:47.890Z,16.75
2022-09-16T09:23:34.876Z,16.47
2022-09-16T09:29:39.571Z,16.49
2022-09-16T09:35:25.740Z,15.96
2022-09-16T09:41:10.230Z,15.82
2022-09-16T09:46:51.762Z,15.90
2022-09-16T09:52:40.033Z,16.31
2022-09-16T09:58:23.623Z,16.47
2022-09-16T10:03:56.071Z,16.31
2022-09-16T10:09:27.880Z,16.41
2022-09-16T10:14:56.213Z,16.65
2022-09-16T10:20:32.191Z,16.78
2022-09-16T10:26:39.171Z,16.80
2022-09-16T10:32:07.080Z,16.83
2022-09-16T10:37:29.190Z,16.94
2022-09-16T10:42:53.871Z,17.01
2022-09-16T10:48:19.892Z,17.04
2022-09-16T10:53:46.957Z,17.06
2022-09-16T10:59:13.965Z,17.05
2022-09-16T11:04:45.467Z,17.18
2022-09-16T11:10:47.129Z,17.12
2022-09-16T11:16:55.410Z,17.06
2022-09-16T11:22:41.747Z,17.13
2022-09-16T11:28:41.327Z,16.95
2022-09-16T11:34:30.431Z,16.54
2022-09-16T11:39:58.190Z,16.91
2022-09-16T11:45:42.939Z,16.92
2022-09-16T11:51:27.705Z,17.03
2022-09-16T11:57:17.990Z,16.52
2022-09-16T12:03:03.014Z,16.80
2022-09-16T12:08:38.229Z,16.67
2022-09-16T12:14:19.791Z,16.49
2022-09-16T12:19:47.772Z,16.63
2022-09-16T12:25:46.112Z,16.41
2022-09-16T12:31:23.010Z,16.60
2022-09-16T12:36:53.520Z,16.42
2022-09-16T12:42:34.197Z,16.60
2022-09-16T12:48:25.560Z,16.30
2022-09-16T12:54:25.879Z,16.57
2022-09-16T13:00:19.173Z,16.58
2022-09-16T13:05:48.574Z,16.38
2022-09-16T13:17:12.753Z,16.25
2022-09-16T13:22:38.491Z,16.41
2022-09-16T13:28:02.531Z,16.38
2022-09-16T13:33:28.063Z,16.38
2022-09-16T13:38:54.614Z,16.38
2022-09-16T13:44:40.230Z,16.40
2022-09-16T13:50:16.510Z,16.37
2022-09-16T13:55:42.714Z,16.31
2022-09-16T14:01:22.666Z,16.27
2022-09-16T14:07:12.114Z,16.23
2022-09-16T14:12:50.529Z,16.10
2022-09-16T14:18:20.092Z,15.98
2022-09-16T14:23:46.328Z,15.67
2022-09-16T14:29:15.400Z,15.62
2022-09-16T14:34:39.203Z,15.44
2022-09-16T14:40:26.749Z,15.46
2022-09-16T14:51:27.759Z,15.10
2022-09-16T14:57:10.214Z,15.08
2022-09-16T15:02:41.487Z,15.36
2022-09-16T15:08:27.849Z,15.39
2022-09-16T15:13:53.619Z,15.01
2022-09-16T15:19:46.181Z,15.25
2022-09-16T15:25:22.155Z,15.13
2022-09-16T15:30:58.209Z,14.94
2022-09-16T15:36:52.719Z,14.96
2022-09-16T15:42:15.139Z,14.90
2022-09-16T15:47:50.401Z,14.78
2022-09-16T15:53:35.190Z,14.83
2022-09-16T15:59:04.952Z,14.82
2022-09-16T16:04:34.048Z,14.79
2022-09-16T16:09:56.783Z,14.78
2022-09-16T16:15:26.880Z,14.70
2022-09-16T16:20:50.971Z,14.75
2022-09-16T16:26:14.961Z,14.72
2022-09-16T16:31:40.456Z,14.70
2022-09-16T16:37:03.312Z,14.67
2022-09-16T16:42:26.051Z,14.53
2022-09-16T16:47:48.751Z,14.54
2022-09-16T16:53:11.412Z,14.45
2022-09-16T16:58:37.229Z,14.36
2022-09-16T17:04:00.673Z,14.21
2022-09-16T17:09:22.871Z,14.15
2022-09-16T17:14:45.381Z,14.07
2022-09-16T17:20:08.615Z,14.08
2022-09-16T17:25:32.079Z,13.94
2022-09-16T17:30:54.805Z,13.95
2022-09-16T17:36:20.502Z,13.99
2022-09-16T17:41:44.695Z,13.61
2022-09-16T17:47:07.954Z,13.44
2022-09-16T17:52:31.511Z,13.70
2022-09-16T17:57:54.072Z,13.63
2022-09-16T18:03:16.871Z,13.73
2022-09-16T18:08:40.642Z,13.33
2022-09-16T18:14:07.631Z,13.20
2022-09-16T18:19:30.151Z,13.28
2022-09-16T18:24:52.971Z,13.29
2022-09-16T18:30:16.114Z,13.09
2022-09-16T18:35:39.022Z,13.13
2022-09-16T18:41:06.405Z,13.25
2022-09-16T18:46:30.661Z,13.22
2022-09-16T18:51:53.913Z,13.20
2022-09-16T18:57:17.966Z,13.00
2022-09-16T19:02:40.326Z,13.01
2022-09-16T19:08:02.471Z,12.89
2022-09-16T19:13:25.443Z,13.03
2022-09-16T19:18:51.682Z,12.79
2022-09-16T19:24:16.431Z,12.95
2022-09-16T19:29:38.082Z,12.74
2022-09-16T19:35:00.161Z,12.80
2022-09-16T19:40:22.597Z,12.88
2022-09-16T19:45:45.236Z,12.71
2022-09-16T19:51:09.991Z,12.88
2022-09-16T19:56:34.347Z,12.88
2022-09-16T20:01:57.767Z,12.87
2022-09-16T20:07:20.916Z,12.87
2022-09-16T20:12:43.072Z,12.86
2022-09-16T20:18:04.642Z,12.78
2022-09-16T20:23:26.781Z,12.85
2022-09-16T20:28:54.851Z,12.38
2022-09-16T20:39:57.180Z,12.59
2022-09-16T20:45:23.111Z,12.38
2022-09-16T20:50:48.182Z,12.36
2022-09-16T20:56:17.550Z,12.27
2022-09-16T21:02:24.043Z,12.77
2022-09-16T21:08:03.871Z,12.37
2022-09-16T21:13:43.837Z,12.29
2022-09-16T21:19:11.835Z,12.32
2022-09-16T21:24:34.133Z,12.58
2022-09-16T21:29:55.691Z,12.63
2022-09-16T21:35:17.719Z,12.62
2022-09-16T21:40:40.070Z,12.75
2022-09-16T21:46:05.505Z,12.76
2022-09-16T21:51:35.546Z,12.78
2022-09-16T21:56:57.880Z,12.75
2022-09-16T22:02:20.025Z,12.73
2022-09-16T22:07:44.741Z,12.58
2022-09-16T22:13:06.801Z,12.70
2022-09-16T22:18:31.432Z,12.44
2022-09-16T22:24:12.262Z,12.62
2022-09-16T22:29:34.491Z,12.10
2022-09-16T22:34:56.311Z,12.37
2022-09-16T22:40:19.726Z,12.32
2022-09-16T22:45:41.722Z,12.24
2022-09-16T22:51:04.879Z,12.38
2022-09-16T22:56:32.446Z,12.19
2022-09-16T23:01:54.912Z,12.37
2022-09-16T23:07:17.011Z,12.35
2022-09-16T23:12:40.682Z,12.41
2022-09-16T23:18:02.934Z,12.41
2022-09-16T23:23:25.535Z,12.43
2022-09-16T23:28:50.872Z,12.44
2022-09-16T23:34:18.189Z,12.47
2022-09-16T23:39:45.362Z,12.10
2022-09-16T23:45:08.552Z,12.14
2022-09-16T23:50:33.852Z,12.13
2022-09-16T23:55:58.631Z,12.28
